Hercules 100 — ZDPK8 — position and weather

sailwx.info

Track history (hours):
 
Tides and Currents Weather Stations Pressure Air Temp Water Temp Dewpoint Dewpoint Depression Visibility Wind Speed Wind Dir Waves Ship Positions

Hercules 100

Last reported at 2017-Sep-19 19:57 UTC. Time now 2017-Sep-19 20:35 UTC.
Position N 36°09' W 005°23'.

Length 88 m; draft 5.6 m.

Type: Ship. MMSI: 236678000.

Date/timePositionNaut miles runAvg speedWind from/ knotsBaromVisibWave heightAir tempDewpointWater temp
2017-Sep-19 19:57N 36°09' W 005°23'0 0.6
2017-Sep-19 19:27N 36°09' W 005°23'0 0.6
2017-Sep-19 18:59N 36°09' W 005°24'2 0.0
2017-Sep-17 19:05N 36°08' W 005°21'0 0.1
2017-Sep-17 18:44N 36°08' W 005°21'0 0.0
2017-Sep-17 18:30N 36°08' W 005°21'0 0.0
2017-Sep-17 18:00N 36°08' W 005°21'0 0.0
2017-Sep-17 17:30N 36°08' W 005°21'0 0.0
2017-Sep-17 17:00N 36°08' W 005°21'0 0.0
2017-Sep-17 16:30N 36°08' W 005°21'0 0.0
2017-Sep-17 16:00N 36°08' W 005°21'0 0.0
2017-Sep-17 15:30N 36°08' W 005°21'0 0.0
2017-Sep-17 15:00N 36°08' W 005°21'1 1.8
2017-Sep-17 14:29N 36°09' W 005°22'0 0.0
2017-Sep-17 12:50N 36°09' W 005°22'0 0.0
2017-Sep-17 12:24N 36°09' W 005°22'0 0.0
2017-Sep-17 12:00N 36°09' W 005°22'0 0.0
2017-Sep-17 11:29N 36°09' W 005°22'2 0.0
2017-Sep-15 21:00N 36°07' W 005°22'0 0.1
2017-Sep-15 20:27N 36°07' W 005°22'0 0.1
2017-Sep-15 20:00N 36°07' W 005°22'2 0.1
2017-Sep-14 17:42N 36°09' W 005°22'0 0.4
2017-Sep-14 17:19N 36°09' W 005°22'1 0.6
2017-Sep-14 15:55N 36°08' W 005°23'0 0.4
2017-Sep-14 15:30N 36°08' W 005°23'0 0.3
2017-Sep-14 14:57N 36°08' W 005°23'1 0.0
2017-Sep-13 04:53N 36°09' W 005°22'0 0.1
2017-Sep-13 04:24N 36°09' W 005°22'0 0.2
2017-Sep-13 03:57N 36°09' W 005°22'0 0.0
2017-Sep-13 02:51N 36°09' W 005°22'0 0.1
2017-Sep-13 02:22N 36°09' W 005°22'0 0.1
2017-Sep-13 02:00N 36°09' W 005°22'1 1.0
2017-Sep-13 01:24N 36°09' W 005°23'2 4.6
2017-Sep-13 01:00N 36°07' W 005°23'3 6.7
2017-Sep-13 00:30N 36°04' W 005°23'4 8.1
2017-Sep-13 00:00N 35°60' W 005°24'4 9.0
2017-Sep-12 23:30N 35°57' W 005°28'5 0.5
2017-Sep-12 13:22N 36°01' W 005°25'8 4.1
2017-Sep-12 11:24N 36°09' W 005°22'0 0.0
2017-Sep-12 11:01N 36°09' W 005°22'0 0.0
2017-Sep-12 10:30N 36°09' W 005°22'0 0.0
2017-Sep-12 10:01N 36°09' W 005°22'0 0.0
2017-Sep-12 09:31N 36°09' W 005°22'0 0.0
2017-Sep-12 09:01N 36°09' W 005°22'0 0.0
2017-Sep-12 08:30N 36°09' W 005°22'0 0.0
2017-Sep-12 08:01N 36°09' W 005°22'0 0.0
2017-Sep-12 07:31N 36°09' W 005°22'0 0.0
2017-Sep-12 07:00N 36°09' W 005°22'0 0.0
2017-Sep-12 06:30N 36°09' W 005°22'0 0.0
2017-Sep-12 06:00N 36°09' W 005°22'0 0.0
2017-Sep-12 05:31N 36°09' W 005°22'0 0.1
2017-Sep-12 05:01N 36°09' W 005°22'1 2.7
2017-Sep-12 04:31N 36°07' W 005°22'0 0.1
2017-Sep-12 04:00N 36°07' W 005°22'0 0.1
2017-Sep-12 03:27N 36°07' W 005°22'0 0.0
2017-Sep-12 03:00N 36°07' W 005°22'0 0.0
2017-Sep-12 02:31N 36°07' W 005°22'0 0.1
2017-Sep-12 02:01N 36°07' W 005°22'0 0.1
2017-Sep-12 01:31N 36°08' W 005°22'0 0.1
2017-Sep-12 00:45N 36°08' W 005°22'0 0.7
2017-Sep-12 00:30N 36°07' W 005°22'0 0.4
2017-Sep-12 00:01N 36°07' W 005°22'0 0.0
2017-Sep-11 23:31N 36°07' W 005°22'0 0.0
2017-Sep-11 23:01N 36°07' W 005°22'0 0.0
2017-Sep-11 22:31N 36°07' W 005°22'0 0.0
2017-Sep-11 22:00N 36°07' W 005°22'0 0.0
2017-Sep-11 21:31N 36°07' W 005°22'0 0.0
2017-Sep-11 21:00N 36°07' W 005°22'1 2.1
2017-Sep-11 20:30N 36°08' W 005°22'1 1.3
2017-Sep-11 20:01N 36°09' W 005°22'0 0.0
2017-Sep-11 19:31N 36°09' W 005°22'0 0.0
2017-Sep-11 19:01N 36°09' W 005°22'0 0.0
2017-Sep-11 18:03N 36°09' W 005°22'0 0.0
2017-Sep-11 18:01N 36°09' W 005°22'0 0.0
2017-Sep-11 14:44N 36°09' W 005°22'0 0.1
2017-Sep-11 13:04N 36°09' W 005°22'4 0.1
2017-Sep-10 08:09N 36°05' W 005°19'6 1.8
2017-Sep-10 04:55N 36°08' W 005°26'0 0.0
2017-Sep-09 22:55N 36°08' W 005°26'  
Track history (hours):
 
Tides and Currents Weather Stations Pressure Air Temp Water Temp Dewpoint Dewpoint Depression Visibility Wind Speed Wind Dir Waves Ship Positions

Hercules 100

Last reported at 2017-Sep-19 19:57 UTC. Time now 2017-Sep-19 20:35 UTC.
Position N 36°09' W 005°23'.

Length 88 m; draft 5.6 m.

Type: Ship. MMSI: 236678000.

Date/timePositionNaut miles runAvg speedWind from/ knotsBaromVisibWave heightAir tempDewpointWater temp
2017-Sep-19 19:57N 36°09' W 005°23'0 0.6
2017-Sep-19 19:27N 36°09' W 005°23'0 0.6
2017-Sep-19 18:59N 36°09' W 005°24'2 0.0
2017-Sep-17 19:05N 36°08' W 005°21'0 0.1
2017-Sep-17 18:44N 36°08' W 005°21'0 0.0
2017-Sep-17 18:30N 36°08' W 005°21'0 0.0
2017-Sep-17 18:00N 36°08' W 005°21'0 0.0
2017-Sep-17 17:30N 36°08' W 005°21'0 0.0
2017-Sep-17 17:00N 36°08' W 005°21'0 0.0
2017-Sep-17 16:30N 36°08' W 005°21'0 0.0
2017-Sep-17 16:00N 36°08' W 005°21'0 0.0
2017-Sep-17 15:30N 36°08' W 005°21'0 0.0
2017-Sep-17 15:00N 36°08' W 005°21'1 1.8
2017-Sep-17 14:29N 36°09' W 005°22'0 0.0
2017-Sep-17 12:50N 36°09' W 005°22'0 0.0
2017-Sep-17 12:24N 36°09' W 005°22'0 0.0
2017-Sep-17 12:00N 36°09' W 005°22'0 0.0
2017-Sep-17 11:29N 36°09' W 005°22'2 0.0
2017-Sep-15 21:00N 36°07' W 005°22'0 0.1
2017-Sep-15 20:27N 36°07' W 005°22'0 0.1
2017-Sep-15 20:00N 36°07' W 005°22'2 0.1
2017-Sep-14 17:42N 36°09' W 005°22'0 0.4
2017-Sep-14 17:19N 36°09' W 005°22'1 0.6
2017-Sep-14 15:55N 36°08' W 005°23'0 0.4
2017-Sep-14 15:30N 36°08' W 005°23'0 0.3
2017-Sep-14 14:57N 36°08' W 005°23'1 0.0
2017-Sep-13 04:53N 36°09' W 005°22'0 0.1
2017-Sep-13 04:24N 36°09' W 005°22'0 0.2
2017-Sep-13 03:57N 36°09' W 005°22'0 0.0
2017-Sep-13 02:51N 36°09' W 005°22'0 0.1
2017-Sep-13 02:22N 36°09' W 005°22'0 0.1
2017-Sep-13 02:00N 36°09' W 005°22'1 1.0
2017-Sep-13 01:24N 36°09' W 005°23'2 4.6
2017-Sep-13 01:00N 36°07' W 005°23'3 6.7
2017-Sep-13 00:30N 36°04' W 005°23'4 8.1
2017-Sep-13 00:00N 35°60' W 005°24'4 9.0
2017-Sep-12 23:30N 35°57' W 005°28'5 0.5
2017-Sep-12 13:22N 36°01' W 005°25'8 4.1
2017-Sep-12 11:24N 36°09' W 005°22'0 0.0
2017-Sep-12 11:01N 36°09' W 005°22'0 0.0
2017-Sep-12 10:30N 36°09' W 005°22'0 0.0
2017-Sep-12 10:01N 36°09' W 005°22'0 0.0
2017-Sep-12 09:31N 36°09' W 005°22'0 0.0
2017-Sep-12 09:01N 36°09' W 005°22'0 0.0
2017-Sep-12 08:30N 36°09' W 005°22'0 0.0
2017-Sep-12 08:01N 36°09' W 005°22'0 0.0
2017-Sep-12 07:31N 36°09' W 005°22'0 0.0
2017-Sep-12 07:00N 36°09' W 005°22'0 0.0
2017-Sep-12 06:30N 36°09' W 005°22'0 0.0
2017-Sep-12 06:00N 36°09' W 005°22'0 0.0
2017-Sep-12 05:31N 36°09' W 005°22'0 0.1
2017-Sep-12 05:01N 36°09' W 005°22'1 2.7
2017-Sep-12 04:31N 36°07' W 005°22'0 0.1
2017-Sep-12 04:00N 36°07' W 005°22'0 0.1
2017-Sep-12 03:27N 36°07' W 005°22'0 0.0
2017-Sep-12 03:00N 36°07' W 005°22'0 0.0
2017-Sep-12 02:31N 36°07' W 005°22'0 0.1
2017-Sep-12 02:01N 36°07' W 005°22'0 0.1
2017-Sep-12 01:31N 36°08' W 005°22'0 0.1
2017-Sep-12 00:45N 36°08' W 005°22'0 0.7
2017-Sep-12 00:30N 36°07' W 005°22'0 0.4
2017-Sep-12 00:01N 36°07' W 005°22'0 0.0
2017-Sep-11 23:31N 36°07' W 005°22'0 0.0
2017-Sep-11 23:01N 36°07' W 005°22'0 0.0
2017-Sep-11 22:31N 36°07' W 005°22'0 0.0
2017-Sep-11 22:00N 36°07' W 005°22'0 0.0
2017-Sep-11 21:31N 36°07' W 005°22'0 0.0
2017-Sep-11 21:00N 36°07' W 005°22'1 2.1
2017-Sep-11 20:30N 36°08' W 005°22'1 1.3
2017-Sep-11 20:01N 36°09' W 005°22'0 0.0
2017-Sep-11 19:31N 36°09' W 005°22'0 0.0
2017-Sep-11 19:01N 36°09' W 005°22'0 0.0
2017-Sep-11 18:03N 36°09' W 005°22'0 0.0
2017-Sep-11 18:01N 36°09' W 005°22'0 0.0
2017-Sep-11 14:44N 36°09' W 005°22'0 0.1
2017-Sep-11 13:04N 36°09' W 005°22'4 0.1
2017-Sep-10 08:09N 36°05' W 005°19'6 1.8
2017-Sep-10 04:55N 36°08' W 005°26'0 0.0
2017-Sep-09 22:55N 36°08' W 005°26'  

Dump ship's entire track history